sensor_id;sensor_type;location;lat;lon;timestamp;pressure;altitude;pressure_sealevel;temperature;humidity
74613;BME280;63119;51.788;8.824;2023-04-06T00:02:10;100333.59;;;4.50;51.86
74613;BME280;63119;51.788;8.824;2023-04-06T00:04:35;100322.91;;;4.56;51.98
74613;BME280;63119;51.788;8.824;2023-04-06T00:07:00;100329.59;;;4.65;51.83
74613;BME280;63119;51.788;8.824;2023-04-06T00:09:26;100331.63;;;4.57;52.23
74613;BME280;63119;51.788;8.824;2023-04-06T00:11:51;100331.91;;;4.72;51.86
74613;BME280;63119;51.788;8.824;2023-04-06T00:14:16;100320.25;;;4.79;51.24
74613;BME280;63119;51.788;8.824;2023-04-06T00:16:42;100326.38;;;4.80;51.60
74613;BME280;63119;51.788;8.824;2023-04-06T00:19:07;100321.25;;;4.77;51.02
74613;BME280;63119;51.788;8.824;2023-04-06T00:21:33;100317.63;;;4.58;51.88
74613;BME280;63119;51.788;8.824;2023-04-06T00:23:58;100323.59;;;4.61;51.78
74613;BME280;63119;51.788;8.824;2023-04-06T00:26:23;100313.97;;;4.62;51.85
74613;BME280;63119;51.788;8.824;2023-04-06T00:28:48;100323.75;;;4.57;51.38
74613;BME280;63119;51.788;8.824;2023-04-06T00:31:15;100303.78;;;4.54;51.71
74613;BME280;63119;51.788;8.824;2023-04-06T00:33:40;100305.50;;;4.55;51.73
74613;BME280;63119;51.788;8.824;2023-04-06T00:36:06;100302.00;;;4.55;52.04
74613;BME280;63119;51.788;8.824;2023-04-06T00:38:31;100302.41;;;4.44;52.10
74613;BME280;63119;51.788;8.824;2023-04-06T00:40:56;100301.34;;;4.50;52.09
74613;BME280;63119;51.788;8.824;2023-04-06T00:43:22;100298.03;;;4.45;52.86
74613;BME280;63119;51.788;8.824;2023-04-06T00:45:47;100292.78;;;4.45;52.10
74613;BME280;63119;51.788;8.824;2023-04-06T00:48:12;100291.88;;;4.46;51.75
74613;BME280;63119;51.788;8.824;2023-04-06T00:50:38;100291.75;;;4.49;52.32
74613;BME280;63119;51.788;8.824;2023-04-06T00:53:03;100280.72;;;4.40;51.75
74613;BME280;63119;51.788;8.824;2023-04-06T00:55:28;100286.19;;;4.34;52.64
74613;BME280;63119;51.788;8.824;2023-04-06T00:57:55;100283.22;;;4.44;52.58
74613;BME280;63119;51.788;8.824;2023-04-06T01:00:22;100286.19;;;4.34;52.64
74613;BME280;63119;51.788;8.824;2023-04-06T01:02:47;100278.56;;;4.28;52.27
74613;BME280;63119;51.788;8.824;2023-04-06T01:05:13;100280.38;;;4.26;52.30
74613;BME280;63119;51.788;8.824;2023-04-06T01:07:38;100278.63;;;4.27;52.74
74613;BME280;63119;51.788;8.824;2023-04-06T01:10:04;100275.75;;;4.33;53.06
74613;BME280;63119;51.788;8.824;2023-04-06T01:12:29;100275.38;;;4.44;52.25
74613;BME280;63119;51.788;8.824;2023-04-06T01:14:55;100269.91;;;4.50;52.35
74613;BME280;63119;51.788;8.824;2023-04-06T01:17:20;100266.66;;;4.43;52.62
74613;BME280;63119;51.788;8.824;2023-04-06T01:19:46;100260.56;;;4.43;51.83
74613;BME280;63119;51.788;8.824;2023-04-06T01:22:16;100261.34;;;4.45;53.24
74613;BME280;63119;51.788;8.824;2023-04-06T01:24:41;100250.84;;;4.45;52.61
74613;BME280;63119;51.788;8.824;2023-04-06T01:27:07;100250.19;;;4.39;52.43
74613;BME280;63119;51.788;8.824;2023-04-06T01:29:32;100255.56;;;4.36;52.66
74613;BME280;63119;51.788;8.824;2023-04-06T01:31:57;100255.72;;;4.32;52.19
74613;BME280;63119;51.788;8.824;2023-04-06T01:34:22;100250.13;;;4.41;51.79
74613;BME280;63119;51.788;8.824;2023-04-06T01:36:48;100251.34;;;4.32;52.22
74613;BME280;63119;51.788;8.824;2023-04-06T01:39:13;100238.53;;;4.25;52.20
74613;BME280;63119;51.788;8.824;2023-04-06T01:41:38;100250.53;;;4.30;52.27
74613;BME280;63119;51.788;8.824;2023-04-06T01:44:04;100243.94;;;4.20;52.12
74613;BME280;63119;51.788;8.824;2023-04-06T01:46:29;100240.56;;;4.17;52.02
74613;BME280;63119;51.788;8.824;2023-04-06T01:48:54;100239.13;;;4.10;53.23
74613;BME280;63119;51.788;8.824;2023-04-06T01:51:20;100233.41;;;3.99;53.09
74613;BME280;63119;51.788;8.824;2023-04-06T01:53:45;100237.63;;;4.03;53.09
74613;BME280;63119;51.788;8.824;2023-04-06T01:56:10;100238.38;;;4.06;52.88
74613;BME280;63119;51.788;8.824;2023-04-06T01:58:35;100234.66;;;4.12;53.65
74613;BME280;63119;51.788;8.824;2023-04-06T02:01:01;100223.34;;;4.11;53.46
74613;BME280;63119;51.788;8.824;2023-04-06T02:03:26;100231.53;;;4.02;54.26
74613;BME280;63119;51.788;8.824;2023-04-06T02:05:51;100230.31;;;3.89;54.93
74613;BME280;63119;51.788;8.824;2023-04-06T02:08:17;100226.19;;;3.82;55.11
74613;BME280;63119;51.788;8.824;2023-04-06T02:10:42;100228.81;;;3.82;55.17
74613;BME280;63119;51.788;8.824;2023-04-06T02:13:07;100233.44;;;3.74;56.12
74613;BME280;63119;51.788;8.824;2023-04-06T02:15:32;100230.34;;;3.64;56.69
74613;BME280;63119;51.788;8.824;2023-04-06T02:17:58;100232.84;;;3.43;56.78
74613;BME280;63119;51.788;8.824;2023-04-06T02:20:24;100233.72;;;3.43;57.44
74613;BME280;63119;51.788;8.824;2023-04-06T02:22:49;100228.59;;;3.40;57.28
74613;BME280;63119;51.788;8.824;2023-04-06T02:25:14;100226.47;;;3.50;56.64
74613;BME280;63119;51.788;8.824;2023-04-06T02:27:40;100228.25;;;3.49;57.74
74613;BME280;63119;51.788;8.824;2023-04-06T02:30:06;100229.28;;;3.45;57.20
74613;BME280;63119;51.788;8.824;2023-04-06T02:32:31;100228.84;;;3.33;58.07
74613;BME280;63119;51.788;8.824;2023-04-06T02:34:56;100230.66;;;3.30;58.29
74613;BME280;63119;51.788;8.824;2023-04-06T02:37:22;100226.44;;;3.26;58.50
74613;BME280;63119;51.788;8.824;2023-04-06T02:39:49;100218.66;;;3.25;58.59
74613;BME280;63119;51.788;8.824;2023-04-06T02:42:14;100221.16;;;3.28;57.62
74613;BME280;63119;51.788;8.824;2023-04-06T02:44:41;100214.75;;;3.12;58.40
74613;BME280;63119;51.788;8.824;2023-04-06T02:47:06;100218.88;;;3.19;58.89
74613;BME280;63119;51.788;8.824;2023-04-06T02:49:31;100222.41;;;3.16;59.15
74613;BME280;63119;51.788;8.824;2023-04-06T02:51:56;100213.69;;;3.17;58.41
74613;BME280;63119;51.788;8.824;2023-04-06T02:54:22;100216.34;;;3.16;58.45
74613;BME280;63119;51.788;8.824;2023-04-06T02:56:47;100224.31;;;3.13;58.94
74613;BME280;63119;51.788;8.824;2023-04-06T02:59:12;100223.47;;;3.11;59.13
74613;BME280;63119;51.788;8.824;2023-04-06T03:01:37;100220.94;;;3.09;58.66
74613;BME280;63119;51.788;8.824;2023-04-06T03:04:03;100223.56;;;3.09;59.23
74613;BME280;63119;51.788;8.824;2023-04-06T03:06:35;100221.25;;;3.00;59.09
74613;BME280;63119;51.788;8.824;2023-04-06T03:09:02;100222.84;;;3.04;59.55
74613;BME280;63119;51.788;8.824;2023-04-06T03:11:27;100222.13;;;2.99;59.72
74613;BME280;63119;51.788;8.824;2023-04-06T03:13:52;100216.13;;;2.97;59.56
74613;BME280;63119;51.788;8.824;2023-04-06T03:16:18;100213.19;;;2.80;60.05
74613;BME280;63119;51.788;8.824;2023-04-06T03:18:43;100213.91;;;2.85;59.82
74613;BME280;63119;51.788;8.824;2023-04-06T03:21:10;100213.75;;;2.90;60.38
74613;BME280;63119;51.788;8.824;2023-04-06T03:23:35;100218.28;;;2.85;59.63
74613;BME280;63119;51.788;8.824;2023-04-06T03:26:01;100220.03;;;2.84;59.92
74613;BME280;63119;51.788;8.824;2023-04-06T03:28:26;100216.53;;;2.85;59.65
74613;BME280;63119;51.788;8.824;2023-04-06T03:30:52;100211.41;;;2.82;59.60
74613;BME280;63119;51.788;8.824;2023-04-06T03:33:17;100222.16;;;2.73;60.37
74613;BME280;63119;51.788;8.824;2023-04-06T03:35:42;100221.09;;;2.79;59.63
74613;BME280;63119;51.788;8.824;2023-04-06T03:38:07;100217.03;;;2.70;60.31
74613;BME280;63119;51.788;8.824;2023-04-06T03:40:33;100218.72;;;2.71;60.28
74613;BME280;63119;51.788;8.824;2023-04-06T03:42:58;100215.81;;;2.80;60.17
74613;BME280;63119;51.788;8.824;2023-04-06T03:45:23;100220.94;;;2.83;59.97
74613;BME280;63119;51.788;8.824;2023-04-06T03:47:48;100218.31;;;2.83;59.71
74613;BME280;63119;51.788;8.824;2023-04-06T03:50:14;100216.72;;;2.79;59.96
74613;BME280;63119;51.788;8.824;2023-04-06T03:52:39;100215.88;;;2.79;60.61
74613;BME280;63119;51.788;8.824;2023-04-06T03:55:05;100221.19;;;2.75;59.91
74613;BME280;63119;51.788;8.824;2023-04-06T03:57:30;100222.16;;;2.73;59.70
74613;BME280;63119;51.788;8.824;2023-04-06T03:59:55;100221.31;;;2.71;60.03
74613;BME280;63119;51.788;8.824;2023-04-06T04:02:21;100225.75;;;2.69;60.08
74613;BME280;63119;51.788;8.824;2023-04-06T04:04:46;100217.22;;;2.64;60.20
74613;BME280;63119;51.788;8.824;2023-04-06T04:07:11;100223.44;;;2.60;60.37
74613;BME280;63119;51.788;8.824;2023-04-06T04:09:37;100226.25;;;2.54;60.53
74613;BME280;63119;51.788;8.824;2023-04-06T04:12:02;100222.84;;;2.52;60.32
74613;BME280;63119;51.788;8.824;2023-04-06T04:14:27;100221.22;;;2.48;60.72
74613;BME280;63119;51.788;8.824;2023-04-06T04:16:52;100223.91;;;2.45;60.76
74613;BME280;63119;51.788;8.824;2023-04-06T04:19:18;100226.44;;;2.48;60.90
74613;BME280;63119;51.788;8.824;2023-04-06T04:21:44;100221.16;;;2.49;61.19
74613;BME280;63119;51.788;8.824;2023-04-06T04:24:10;100222.00;;;2.50;61.08
74613;BME280;63119;51.788;8.824;2023-04-06T04:26:35;100225.34;;;2.55;59.12
74613;BME280;63119;51.788;8.824;2023-04-06T04:29:01;100221.13;;;2.51;60.65
74613;BME280;63119;51.788;8.824;2023-04-06T04:31:26;100219.50;;;2.47;61.70
74613;BME280;63119;51.788;8.824;2023-04-06T04:33:51;100224.53;;;2.53;61.56
74613;BME280;63119;51.788;8.824;2023-04-06T04:36:16;100226.44;;;2.48;61.12
74613;BME280;63119;51.788;8.824;2023-04-06T04:38:42;100220.69;;;2.37;61.34
74613;BME280;63119;51.788;8.824;2023-04-06T04:41:07;100217.16;;;2.38;60.96
74613;BME280;63119;51.788;8.824;2023-04-06T04:43:32;100223.22;;;2.40;61.33
74613;BME280;63119;51.788;8.824;2023-04-06T04:45:57;100212.13;;;2.32;61.96
74613;BME280;63119;51.788;8.824;2023-04-06T04:48:24;100216.41;;;2.34;61.39
74613;BME280;63119;51.788;8.824;2023-04-06T04:50:49;100216.13;;;2.43;61.77
74613;BME280;63119;51.788;8.824;2023-04-06T04:53:14;100222.25;;;2.42;61.40
74613;BME280;63119;51.788;8.824;2023-04-06T04:55:40;100222.25;;;2.42;61.92
74613;BME280;63119;51.788;8.824;2023-04-06T04:58:05;100221.44;;;2.40;61.74
74613;BME280;63119;51.788;8.824;2023-04-06T05:00:31;100219.66;;;2.42;62.30
74613;BME280;63119;51.788;8.824;2023-04-06T05:02:56;100218.81;;;2.40;62.40
74613;BME280;63119;51.788;8.824;2023-04-06T05:05:21;100214.47;;;2.41;62.14
74613;BME280;63119;51.788;8.824;2023-04-06T05:07:47;100218.72;;;2.43;62.55
74613;BME280;63119;51.788;8.824;2023-04-06T05:10:12;100226.44;;;2.48;62.62
74613;BME280;63119;51.788;8.824;2023-04-06T05:12:37;100215.00;;;2.52;62.46
74613;BME280;63119;51.788;8.824;2023-04-06T05:15:03;100215.78;;;2.54;62.43
74613;BME280;63119;51.788;8.824;2023-04-06T05:17:28;100209.50;;;2.59;62.08
74613;BME280;63119;51.788;8.824;2023-04-06T05:19:54;100212.09;;;2.61;62.43
74613;BME280;63119;51.788;8.824;2023-04-06T05:22:19;100212.09;;;2.61;61.59
74613;BME280;63119;51.788;8.824;2023-04-06T05:24:45;100218.72;;;2.71;61.56
74613;BME280;63119;51.788;8.824;2023-04-06T05:27:10;100219.47;;;2.74;61.75
74613;BME280;63119;51.788;8.824;2023-04-06T05:29:35;100224.91;;;2.95;58.84
74613;BME280;63119;51.788;8.824;2023-04-06T05:32:01;100216.03;;;3.00;58.12
74613;BME280;63119;51.788;8.824;2023-04-06T05:34:26;100229.44;;;3.16;56.45
74613;BME280;63119;51.788;8.824;2023-04-06T05:36:51;100223.56;;;3.34;55.89
74613;BME280;63119;51.788;8.824;2023-04-06T05:39:17;100213.81;;;3.62;55.30
74613;BME280;63119;51.788;8.824;2023-04-06T05:41:42;100224.47;;;3.81;53.21
74613;BME280;63119;51.788;8.824;2023-04-06T05:44:07;100220.44;;;4.19;53.42
74613;BME280;63119;51.788;8.824;2023-04-06T05:46:32;100217.72;;;4.65;51.80
74613;BME280;63119;51.788;8.824;2023-04-06T05:48:58;100223.44;;;4.96;50.40
74613;BME280;63119;51.788;8.824;2023-04-06T05:51:23;100221.28;;;6.05;46.56
74613;BME280;63119;51.788;8.824;2023-04-06T05:53:48;100221.34;;;6.96;44.28
74613;BME280;63119;51.788;8.824;2023-04-06T05:56:14;100222.38;;;7.10;43.39
74613;BME280;63119;51.788;8.824;2023-04-06T05:58:39;100222.13;;;7.32;42.80
74613;BME280;63119;51.788;8.824;2023-04-06T06:01:04;100218.53;;;8.00;41.96
74613;BME280;63119;51.788;8.824;2023-04-06T06:03:30;100215.53;;;7.91;42.10
74613;BME280;63119;51.788;8.824;2023-04-06T06:06:00;100214.50;;;8.26;40.92
74613;BME280;63119;51.788;8.824;2023-04-06T06:08:26;100211.66;;;8.92;39.19
74613;BME280;63119;51.788;8.824;2023-04-06T06:10:51;100197.56;;;9.07;39.39
74613;BME280;63119;51.788;8.824;2023-04-06T06:13:16;100208.28;;;9.77;38.66
74613;BME280;63119;51.788;8.824;2023-04-06T06:15:41;100208.94;;;10.37;38.59
74613;BME280;63119;51.788;8.824;2023-04-06T06:18:07;100205.38;;;10.92;37.07
74613;BME280;63119;51.788;8.824;2023-04-06T06:20:32;100198.09;;;11.60;35.57
74613;BME280;63119;51.788;8.824;2023-04-06T06:22:57;100198.13;;;11.85;35.18
74613;BME280;63119;51.788;8.824;2023-04-06T06:25:23;100202.25;;;11.77;34.17
74613;BME280;63119;51.788;8.824;2023-04-06T06:27:49;100204.19;;;12.49;33.91
74613;BME280;63119;51.788;8.824;2023-04-06T06:30:14;100188.63;;;12.55;35.75
74613;BME280;63119;51.788;8.824;2023-04-06T06:32:40;100208.00;;;12.45;32.98
74613;BME280;63119;51.788;8.824;2023-04-06T06:35:05;100203.06;;;12.88;33.35
74613;BME280;63119;51.788;8.824;2023-04-06T06:37:31;100203.50;;;12.58;33.28
74613;BME280;63119;51.788;8.824;2023-04-06T06:39:56;100208.19;;;12.54;33.43
74613;BME280;63119;51.788;8.824;2023-04-06T06:42:21;100210.53;;;13.06;33.18
74613;BME280;63119;51.788;8.824;2023-04-06T06:44:46;100201.91;;;13.16;32.96
74613;BME280;63119;51.788;8.824;2023-04-06T06:47:12;100205.00;;;13.44;31.38
74613;BME280;63119;51.788;8.824;2023-04-06T06:49:37;100191.63;;;13.57;32.56
74613;BME280;63119;51.788;8.824;2023-04-06T06:52:02;100198.94;;;13.88;32.06
74613;BME280;63119;51.788;8.824;2023-04-06T06:54:28;100202.69;;;13.86;33.13
74613;BME280;63119;51.788;8.824;2023-04-06T06:56:53;100193.84;;;14.07;31.50
74613;BME280;63119;51.788;8.824;2023-04-06T06:59:19;100203.22;;;12.37;30.96
74613;BME280;63119;51.788;8.824;2023-04-06T07:01:45;100193.19;;;12.66;32.40
74613;BME280;63119;51.788;8.824;2023-04-06T07:04:10;100200.47;;;11.77;32.04
74613;BME280;63119;51.788;8.824;2023-04-06T07:06:36;100199.94;;;11.72;33.98
74613;BME280;63119;51.788;8.824;2023-04-06T07:09:02;100196.34;;;12.35;35.53
74613;BME280;63119;51.788;8.824;2023-04-06T07:11:28;100201.44;;;11.76;33.97
74613;BME280;63119;51.788;8.824;2023-04-06T07:13:53;100193.19;;;11.41;33.19
74613;BME280;63119;51.788;8.824;2023-04-06T07:16:18;100194.94;;;11.80;33.90
74613;BME280;63119;51.788;8.824;2023-04-06T07:18:44;100189.59;;;11.55;34.28
74613;BME280;63119;51.788;8.824;2023-04-06T07:21:09;100190.28;;;11.19;34.57
74613;BME280;63119;51.788;8.824;2023-04-06T07:23:34;100193.13;;;11.04;34.77
74613;BME280;63119;51.788;8.824;2023-04-06T07:25:59;100196.50;;;10.66;35.48
74613;BME280;63119;51.788;8.824;2023-04-06T07:28:25;100195.63;;;10.92;35.49
74613;BME280;63119;51.788;8.824;2023-04-06T07:30:50;100192.34;;;11.41;35.34
74613;BME280;63119;51.788;8.824;2023-04-06T07:33:16;100194.06;;;12.18;34.99
74613;BME280;63119;51.788;8.824;2023-04-06T07:35:41;100189.34;;;11.20;34.59
74613;BME280;63119;51.788;8.824;2023-04-06T07:38:06;100193.91;;;10.79;35.20
74613;BME280;63119;51.788;8.824;2023-04-06T07:40:31;100198.09;;;10.69;35.79
74613;BME280;63119;51.788;8.824;2023-04-06T07:42:57;100184.31;;;9.80;36.62
74613;BME280;63119;51.788;8.824;2023-04-06T07:45:23;100188.69;;;10.77;36.04
74613;BME280;63119;51.788;8.824;2023-04-06T07:47:48;100189.16;;;10.43;36.58
74613;BME280;63119;51.788;8.824;2023-04-06T07:50:13;100189.56;;;10.51;36.55
74613;BME280;63119;51.788;8.824;2023-04-06T07:52:39;100194.53;;;10.82;35.19
74613;BME280;63119;51.788;8.824;2023-04-06T07:55:04;100186.00;;;10.10;37.06
74613;BME280;63119;51.788;8.824;2023-04-06T07:57:30;100187.16;;;10.87;36.63
74613;BME280;63119;51.788;8.824;2023-04-06T07:59:55;100174.94;;;11.12;35.90
74613;BME280;63119;51.788;8.824;2023-04-06T08:02:20;100176.78;;;11.36;34.80
74613;BME280;63119;51.788;8.824;2023-04-06T08:04:46;100184.44;;;11.02;35.92
74613;BME280;63119;51.788;8.824;2023-04-06T08:07:11;100189.81;;;11.39;36.48
74613;BME280;63119;51.788;8.824;2023-04-06T08:09:37;100180.75;;;11.17;36.31
74613;BME280;63119;51.788;8.824;2023-04-06T08:12:02;100176.66;;;10.59;37.25
74613;BME280;63119;51.788;8.824;2023-04-06T08:14:28;100177.22;;;10.91;35.87
74613;BME280;63119;51.788;8.824;2023-04-06T08:16:53;100186.91;;;10.78;36.49
74613;BME280;63119;51.788;8.824;2023-04-06T08:19:18;100181.53;;;10.92;35.93
74613;BME280;63119;51.788;8.824;2023-04-06T08:21:44;100187.75;;;10.78;35.41
74613;BME280;63119;51.788;8.824;2023-04-06T08:24:11;100181.88;;;10.87;35.80
74613;BME280;63119;51.788;8.824;2023-04-06T08:26:36;100177.59;;;11.12;35.30
74613;BME280;63119;51.788;8.824;2023-04-06T08:29:01;100179.66;;;10.67;35.30
74613;BME280;63119;51.788;8.824;2023-04-06T08:31:26;100179.41;;;10.84;35.34
74613;BME280;63119;51.788;8.824;2023-04-06T08:33:52;100174.09;;;11.24;34.90
74613;BME280;63119;51.788;8.824;2023-04-06T08:36:17;100178.91;;;10.92;34.33
74613;BME280;63119;51.788;8.824;2023-04-06T08:38:47;100185.75;;;10.55;35.18
74613;BME280;63119;51.788;8.824;2023-04-06T08:41:14;100179.06;;;10.50;35.58
74613;BME280;63119;51.788;8.824;2023-04-06T08:43:44;100175.50;;;10.90;35.10
74613;BME280;63119;51.788;8.824;2023-04-06T08:46:11;100173.91;;;11.27;34.94
74613;BME280;63119;51.788;8.824;2023-04-06T08:48:38;100172.47;;;10.96;34.60
74613;BME280;63119;51.788;8.824;2023-04-06T08:51:05;100173.34;;;10.82;35.51
74613;BME280;63119;51.788;8.824;2023-04-06T08:53:30;100168.53;;;10.62;35.61
74613;BME280;63119;51.788;8.824;2023-04-06T08:55:57;100177.41;;;10.61;36.18
74613;BME280;63119;51.788;8.824;2023-04-06T08:58:23;100171.09;;;11.16;35.55
74613;BME280;63119;51.788;8.824;2023-04-06T09:00:50;100180.28;;;10.85;35.20
74613;BME280;63119;51.788;8.824;2023-04-06T09:03:18;100166.28;;;10.56;36.53
74613;BME280;63119;51.788;8.824;2023-04-06T09:05:45;100171.97;;;10.50;36.87
74613;BME280;63119;51.788;8.824;2023-04-06T09:08:11;100167.00;;;10.72;36.82
74613;BME280;63119;51.788;8.824;2023-04-06T09:10:40;100166.03;;;11.13;36.28
74613;BME280;63119;51.788;8.824;2023-04-06T09:13:06;100165.53;;;11.20;36.07
74613;BME280;63119;51.788;8.824;2023-04-06T09:15:31;100163.50;;;11.49;36.01
74613;BME280;63119;51.788;8.824;2023-04-06T09:17:57;100172.53;;;11.59;36.04
74613;BME280;63119;51.788;8.824;2023-04-06T09:20:24;100155.69;;;11.47;35.69
74613;BME280;63119;51.788;8.824;2023-04-06T09:22:52;100172.09;;;11.27;35.95
74613;BME280;63119;51.788;8.824;2023-04-06T09:25:19;100176.13;;;11.20;35.30
74613;BME280;63119;51.788;8.824;2023-04-06T09:27:45;100171.53;;;11.10;35.52
74613;BME280;63119;51.788;8.824;2023-04-06T09:30:11;100163.50;;;11.24;36.17
74613;BME280;63119;51.788;8.824;2023-04-06T09:32:49;100168.22;;;11.83;35.08
74613;BME280;63119;51.788;8.824;2023-04-06T09:35:15;100160.25;;;11.96;34.45
74613;BME280;63119;51.788;8.824;2023-04-06T09:37:42;100163.13;;;11.80;36.17
74613;BME280;63119;51.788;8.824;2023-04-06T09:40:08;100168.41;;;12.05;34.81
74613;BME280;63119;51.788;8.824;2023-04-06T09:42:34;100160.97;;;12.11;34.30
74613;BME280;63119;51.788;8.824;2023-04-06T09:45:03;100160.34;;;11.44;35.11
74613;BME280;63119;51.788;8.824;2023-04-06T09:47:30;100156.34;;;11.64;35.55
74613;BME280;63119;51.788;8.824;2023-04-06T09:49:57;100147.22;;;11.93;35.37
74613;BME280;63119;51.788;8.824;2023-04-06T09:52:29;100145.34;;;12.55;34.86
74613;BME280;63119;51.788;8.824;2023-04-06T09:54:59;100156.53;;;11.98;34.70
74613;BME280;63119;51.788;8.824;2023-04-06T09:57:37;100147.84;;;11.96;34.19
74613;BME280;63119;51.788;8.824;2023-04-06T10:00:09;100150.06;;;11.65;35.76
74613;BME280;63119;51.788;8.824;2023-04-06T10:02:56;100155.38;;;11.77;35.05
74613;BME280;63119;51.788;8.824;2023-04-06T10:08:12;100151.50;;;11.70;35.52
74613;BME280;63119;51.788;8.824;2023-04-06T10:10:38;100142.97;;;11.90;35.70
74613;BME280;63119;51.788;8.824;2023-04-06T10:13:04;100136.75;;;11.79;36.25
74613;BME280;63119;51.788;8.824;2023-04-06T10:15:29;100127.00;;;12.16;35.00
74613;BME280;63119;51.788;8.824;2023-04-06T10:17:56;100135.66;;;12.30;36.47
74613;BME280;63119;51.788;8.824;2023-04-06T10:20:31;100141.22;;;12.15;36.61
74613;BME280;63119;51.788;8.824;2023-04-06T10:23:08;100138.19;;;12.32;35.45
74613;BME280;63119;51.788;8.824;2023-04-06T10:25:34;100136.06;;;12.37;34.85
74613;BME280;63119;51.788;8.824;2023-04-06T10:28:07;100146.03;;;12.10;37.01
74613;BME280;63119;51.788;8.824;2023-04-06T10:30:33;100132.81;;;12.21;35.67
74613;BME280;63119;51.788;8.824;2023-04-06T10:32:59;100133.75;;;11.83;36.04
74613;BME280;63119;51.788;8.824;2023-04-06T10:35:36;100135.94;;;12.02;35.83
74613;BME280;63119;51.788;8.824;2023-04-06T10:38:04;100135.00;;;12.39;36.32
74613;BME280;63119;51.788;8.824;2023-04-06T10:40:29;100133.09;;;11.92;35.78
74613;BME280;63119;51.788;8.824;2023-04-06T10:43:07;100121.19;;;12.34;35.73
74613;BME280;63119;51.788;8.824;2023-04-06T10:45:33;100136.44;;;12.43;35.90
74613;BME280;63119;51.788;8.824;2023-04-06T10:47:58;100126.19;;;12.39;34.95
74613;BME280;63119;51.788;8.824;2023-04-06T10:50:24;100124.88;;;12.44;34.74
74613;BME280;63119;51.788;8.824;2023-04-06T10:53:00;100121.72;;;12.63;35.50
74613;BME280;63119;51.788;8.824;2023-04-06T10:55:27;100119.38;;;12.58;34.95
74613;BME280;63119;51.788;8.824;2023-04-06T10:57:53;100116.09;;;12.31;34.20
74613;BME280;63119;51.788;8.824;2023-04-06T11:00:19;100118.63;;;12.45;35.74
74613;BME280;63119;51.788;8.824;2023-04-06T11:02:45;100111.78;;;12.54;35.32
74613;BME280;63119;51.788;8.824;2023-04-06T11:05:11;100109.00;;;13.14;35.56
74613;BME280;63119;51.788;8.824;2023-04-06T11:07:39;100112.94;;;12.97;35.40
74613;BME280;63119;51.788;8.824;2023-04-06T11:10:05;100113.72;;;12.52;35.62
74613;BME280;63119;51.788;8.824;2023-04-06T11:12:30;100107.34;;;12.89;35.71
74613;BME280;63119;51.788;8.824;2023-04-06T11:14:57;100107.81;;;13.18;35.38
74613;BME280;63119;51.788;8.824;2023-04-06T11:17:33;100100.22;;;13.36;33.23
74613;BME280;63119;51.788;8.824;2023-04-06T11:19:59;100099.16;;;13.38;33.21
74613;BME280;63119;51.788;8.824;2023-04-06T11:22:25;100095.91;;;13.57;32.78
74613;BME280;63119;51.788;8.824;2023-04-06T11:24:51;100086.22;;;13.34;33.17
74613;BME280;63119;51.788;8.824;2023-04-06T11:27:18;100094.09;;;13.57;32.89
74613;BME280;63119;51.788;8.824;2023-04-06T11:29:44;100098.06;;;13.41;33.79
74613;BME280;63119;51.788;8.824;2023-04-06T11:32:21;100092.25;;;13.47;33.27
74613;BME280;63119;51.788;8.824;2023-04-06T11:34:47;100092.75;;;13.41;33.38
74613;BME280;63119;51.788;8.824;2023-04-06T11:37:13;100086.22;;;13.34;33.42
74613;BME280;63119;51.788;8.824;2023-04-06T11:39:42;100082.72;;;12.98;32.63
74613;BME280;63119;51.788;8.824;2023-04-06T11:42:08;100079.78;;;12.79;32.93
74613;BME280;63119;51.788;8.824;2023-04-06T11:44:36;100073.72;;;12.66;33.31
74613;BME280;63119;51.788;8.824;2023-04-06T11:47:05;100075.78;;;13.08;34.14
74613;BME280;63119;51.788;8.824;2023-04-06T11:49:32;100060.56;;;13.10;32.80
74613;BME280;63119;51.788;8.824;2023-04-06T11:51:58;100069.66;;;13.41;32.65
74613;BME280;63119;51.788;8.824;2023-04-06T11:54:37;100071.25;;;13.66;32.85
74613;BME280;63119;51.788;8.824;2023-04-06T11:57:05;100067.34;;;13.26;32.83
74613;BME280;63119;51.788;8.824;2023-04-06T11:59:34;100065.91;;;13.22;33.83
74613;BME280;63119;51.788;8.824;2023-04-06T12:02:03;100068.69;;;13.98;34.36
74613;BME280;63119;51.788;8.824;2023-04-06T12:04:29;100058.81;;;13.66;34.01
74613;BME280;63119;51.788;8.824;2023-04-06T12:06:54;100052.41;;;13.36;33.92
74613;BME280;63119;51.788;8.824;2023-04-06T12:09:20;100052.63;;;13.66;33.51
74613;BME280;63119;51.788;8.824;2023-04-06T12:11:45;100053.13;;;13.82;33.11
74613;BME280;63119;51.788;8.824;2023-04-06T12:14:11;100044.22;;;14.15;32.39
74613;BME280;63119;51.788;8.824;2023-04-06T12:16:36;100049.91;;;14.10;31.59
74613;BME280;63119;51.788;8.824;2023-04-06T12:19:03;100038.50;;;14.19;33.37
74613;BME280;63119;51.788;8.824;2023-04-06T12:21:28;100054.91;;;14.04;31.40
74613;BME280;63119;51.788;8.824;2023-04-06T12:23:54;100055.31;;;14.20;30.81
74613;BME280;63119;51.788;8.824;2023-04-06T12:26:20;100044.59;;;13.99;31.71
74613;BME280;63119;51.788;8.824;2023-04-06T12:28:46;100049.72;;;13.91;30.47
74613;BME280;63119;51.788;8.824;2023-04-06T12:31:15;100059.38;;;13.81;30.64
74613;BME280;63119;51.788;8.824;2023-04-06T12:33:41;100046.25;;;14.34;30.31
74613;BME280;63119;51.788;8.824;2023-04-06T12:36:14;100033.69;;;14.56;31.24
74613;BME280;63119;51.788;8.824;2023-04-06T12:38:44;100041.72;;;14.45;30.59
74613;BME280;63119;51.788;8.824;2023-04-06T12:41:10;100035.69;;;14.43;31.51
74613;BME280;63119;51.788;8.824;2023-04-06T12:43:36;100034.97;;;13.87;31.59
74613;BME280;63119;51.788;8.824;2023-04-06T12:46:01;100024.63;;;14.16;32.38
74613;BME280;63119;51.788;8.824;2023-04-06T12:48:26;100026.84;;;14.43;32.37
74613;BME280;63119;51.788;8.824;2023-04-06T12:51:00;100027.13;;;15.02;30.02
74613;BME280;63119;51.788;8.824;2023-04-06T12:53:26;100023.31;;;14.74;29.64